createdAt,value
2023-04-25T00:00:24.369Z,97126.60
2023-04-25T00:03:46.676Z,97128.84
2023-04-25T00:06:48.803Z,97130.50
2023-04-25T00:09:50.994Z,97131.87
2023-04-25T00:12:52.516Z,97134.09
2023-04-25T00:15:54.144Z,97131.51
2023-04-25T00:18:56.020Z,97131.55
2023-04-25T00:21:57.829Z,97132.32
2023-04-25T00:25:00.684Z,97131.45
2023-04-25T00:28:02.360Z,97130.04
2023-04-25T00:31:04.278Z,97129.86
2023-04-25T00:34:08.652Z,97132.05
2023-04-25T00:37:10.992Z,97131.08
2023-04-25T00:40:12.843Z,97128.43
2023-04-25T00:43:14.597Z,97132.17
2023-04-25T00:46:16.334Z,97131.75
2023-04-25T00:49:18.126Z,97134.46
2023-04-25T00:52:28.881Z,97136.95
2023-04-25T00:55:31.863Z,97135.17
2023-04-25T00:58:34.218Z,97134.80
2023-04-25T01:01:36.245Z,97133.09
2023-04-25T01:04:38.349Z,97134.54
2023-04-25T01:07:41.433Z,97139.74
2023-04-25T01:10:43.215Z,97136.48
2023-04-25T01:13:45.065Z,97138.36
2023-04-25T01:16:46.997Z,97135.31
2023-04-25T01:19:49.391Z,97137.02
2023-04-25T01:22:51.757Z,97137.84
2023-04-25T01:25:54.097Z,97142.34
2023-04-25T01:28:56.155Z,97140.64
2023-04-25T01:31:59.005Z,97142.83
2023-04-25T01:35:01.041Z,97144.09
2023-04-25T01:38:02.716Z,97146.71
2023-04-25T01:41:05.659Z,97148.00
2023-04-25T01:44:07.490Z,97147.17
2023-04-25T01:47:09.156Z,97149.73
2023-04-25T01:50:11.651Z,97152.03
2023-04-25T01:53:15.105Z,97157.70
2023-04-25T01:56:19.249Z,97157.74
2023-04-25T01:59:22.328Z,97159.13
2023-04-25T02:02:44.433Z,97155.97
2023-04-25T02:05:55.784Z,97159.92
2023-04-25T02:08:58.147Z,97159.13
2023-04-25T02:12:00.194Z,97160.55
2023-04-25T02:15:08.461Z,97162.57
2023-04-25T02:18:16.690Z,97162.69
2023-04-25T02:21:18.809Z,97164.47
2023-04-25T02:24:20.668Z,97162.03
2023-04-25T02:27:22.380Z,97164.48
2023-04-25T02:30:24.254Z,97164.48
2023-04-25T02:33:26.067Z,97169.93
2023-04-25T02:36:28.030Z,97170.88
2023-04-25T02:39:29.710Z,97167.13
2023-04-25T02:42:31.497Z,97172.73
2023-04-25T02:45:33.226Z,97169.67
2023-04-25T02:48:34.927Z,97170.35
2023-04-25T02:51:36.589Z,97173.97
2023-04-25T02:54:40.466Z,97173.90
2023-04-25T02:57:42.184Z,97171.40
2023-04-25T03:00:45.440Z,97167.73
2023-04-25T03:03:47.285Z,97164.77
2023-04-25T03:06:49.009Z,97166.84
2023-04-25T03:09:50.802Z,97169.09
2023-04-25T03:12:52.492Z,97165.05
2023-04-25T03:15:54.959Z,97162.04
2023-04-25T03:18:57.196Z,97163.92
2023-04-25T03:21:58.826Z,97162.05
2023-04-25T03:25:00.699Z,97159.42
2023-04-25T03:28:02.415Z,97158.51
2023-04-25T03:31:04.182Z,97161.02
2023-04-25T03:34:05.876Z,97163.44
2023-04-25T03:37:07.622Z,97165.45
2023-04-25T03:40:12.560Z,97168.85
2023-04-25T03:43:43.230Z,97172.59
2023-04-25T03:46:47.632Z,97174.39
2023-04-25T03:49:52.105Z,97177.32
2023-04-25T03:52:56.721Z,97177.98
2023-04-25T03:56:03.030Z,97181.38
2023-04-25T03:59:06.148Z,97183.83
2023-04-25T04:02:07.920Z,97185.71
2023-04-25T04:05:11.238Z,97189.11
2023-04-25T04:08:17.714Z,97189.29
2023-04-25T04:11:20.791Z,97187.53
2023-04-25T04:14:22.814Z,97185.20
2023-04-25T04:17:25.700Z,97191.91
2023-04-25T04:20:27.618Z,97196.91
2023-04-25T04:23:30.103Z,97197.59
2023-04-25T04:26:34.020Z,97194.81
2023-04-25T04:29:44.656Z,97197.33
2023-04-25T04:32:54.417Z,97199.61
2023-04-25T04:35:56.808Z,97198.76
2023-04-25T04:38:58.669Z,97199.88
2023-04-25T04:42:24.548Z,97199.81
2023-04-25T04:45:44.964Z,97206.14
2023-04-25T04:49:05.681Z,97207.15
2023-04-25T04:52:21.180Z,97209.52
2023-04-25T04:55:54.905Z,97213.19
2023-04-25T04:59:22.468Z,97211.46
2023-04-25T05:02:42.576Z,97215.43
2023-04-25T05:06:03.780Z,97214.34
2023-04-25T05:09:26.152Z,97216.02
2023-04-25T05:13:04.227Z,97214.66
2023-04-25T05:16:24.322Z,97213.15
2023-04-25T05:19:48.908Z,97213.73
2023-04-25T05:23:13.594Z,97211.63
2023-04-25T05:26:31.323Z,97213.60
2023-04-25T05:29:56.338Z,97215.92
2023-04-25T05:33:04.531Z,97214.98
2023-04-25T05:36:07.308Z,97217.04
2023-04-25T05:39:09.346Z,97218.75
2023-04-25T05:42:29.612Z,97218.66
2023-04-25T05:45:47.207Z,97217.70
2023-04-25T05:49:16.035Z,97223.27
2023-04-25T05:52:40.259Z,97221.02
2023-04-25T05:55:53.349Z,97223.32
2023-04-25T05:59:00.557Z,97221.12
2023-04-25T06:02:02.411Z,97225.05
2023-04-25T06:05:04.897Z,97219.95
2023-04-25T06:08:07.511Z,97224.52
2023-04-25T06:11:09.538Z,97220.63
2023-04-25T06:14:11.256Z,97222.05
2023-04-25T06:17:15.413Z,97220.80
2023-04-25T06:20:17.207Z,97223.06
2023-04-25T06:23:18.952Z,97226.27
2023-04-25T06:26:25.857Z,97228.69
2023-04-25T06:29:27.921Z,97227.65
2023-04-25T06:32:30.363Z,97229.14
2023-04-25T06:35:33.694Z,97224.79
2023-04-25T06:38:35.848Z,97226.91
2023-04-25T06:41:37.719Z,97224.14
2023-04-25T06:44:41.646Z,97227.95
2023-04-25T06:47:44.125Z,97226.64
2023-04-25T06:50:46.124Z,97229.98
2023-04-25T06:53:47.857Z,97234.66
2023-04-25T06:56:58.710Z,97235.13
2023-04-25T07:00:05.696Z,97232.64
2023-04-25T07:03:07.686Z,97228.73
2023-04-25T07:06:09.556Z,97231.88
2023-04-25T07:09:11.766Z,97227.61
2023-04-25T07:12:14.201Z,97231.29
2023-04-25T07:15:16.256Z,97234.39
2023-04-25T07:18:19.249Z,97232.53
2023-04-25T07:21:21.542Z,97229.21
2023-04-25T07:24:24.895Z,97225.11
2023-04-25T07:27:26.987Z,97229.33
2023-04-25T07:30:37.886Z,97232.57
2023-04-25T07:33:39.820Z,97229.45
2023-04-25T07:36:41.963Z,97233.42
2023-04-25T07:39:43.740Z,97230.88
2023-04-25T07:42:46.098Z,97229.87
2023-04-25T07:45:51.365Z,97231.29
2023-04-25T07:48:54.051Z,97233.27
2023-04-25T07:51:56.854Z,97230.77
2023-04-25T07:54:59.036Z,97236.49
2023-04-25T07:58:08.609Z,97237.59
2023-04-25T08:01:11.981Z,97236.63
2023-04-25T08:04:19.834Z,97232.70
2023-04-25T08:07:35.525Z,97234.16
2023-04-25T08:10:39.017Z,97233.75
2023-04-25T08:13:40.981Z,97234.23
2023-04-25T08:16:43.322Z,97229.83
2023-04-25T08:19:45.369Z,97229.34
2023-04-25T08:22:53.811Z,97236.30
2023-04-25T08:26:17.548Z,97236.67
2023-04-25T08:29:19.471Z,97235.64
2023-04-25T08:32:21.879Z,97238.63
2023-04-25T08:35:36.872Z,97236.25
2023-04-25T08:38:38.757Z,97235.52
2023-04-25T08:41:41.936Z,97235.76
2023-04-25T08:44:46.460Z,97235.39
2023-04-25T08:47:53.336Z,97230.89
2023-04-25T08:50:56.706Z,97237.36
2023-04-25T08:57:20.304Z,97239.16
2023-04-25T09:00:23.288Z,97236.95
2023-04-25T09:03:25.327Z,97239.28
2023-04-25T09:06:29.548Z,97234.59
2023-04-25T09:09:31.620Z,97241.89
2023-04-25T09:12:35.394Z,97240.23
2023-04-25T09:15:57.607Z,97242.35
2023-04-25T09:19:40.878Z,97241.94
2023-04-25T09:23:06.051Z,97241.36
2023-04-25T09:26:10.207Z,97239.92
2023-04-25T09:29:11.873Z,97236.02
2023-04-25T09:32:21.460Z,97235.07
2023-04-25T09:35:28.395Z,97239.05
2023-04-25T09:38:33.251Z,97235.27
2023-04-25T09:41:46.168Z,97237.69
2023-04-25T09:44:48.139Z,97243.29
2023-04-25T09:47:51.018Z,97241.42
2023-04-25T09:51:14.976Z,97243.35
2023-04-25T09:54:17.914Z,97241.15
2023-04-25T09:57:25.131Z,97239.88
2023-04-25T10:00:28.594Z,97237.92
2023-04-25T10:03:35.530Z,97237.56
2023-04-25T10:06:53.874Z,97236.40
2023-04-25T10:10:02.171Z,97235.48
2023-04-25T10:13:05.998Z,97234.44
2023-04-25T10:16:08.483Z,97237.39
2023-04-25T10:19:11.231Z,97232.80
2023-04-25T10:22:29.954Z,97230.77
2023-04-25T10:25:32.306Z,97232.06
2023-04-25T10:28:58.758Z,97228.11
2023-04-25T10:32:01.039Z,97230.16
2023-04-25T10:35:27.533Z,97231.71
2023-04-25T10:38:29.305Z,97229.73
2023-04-25T10:41:31.082Z,97223.77
2023-04-25T10:44:33.026Z,97221.60
2023-04-25T10:47:47.824Z,97222.02
2023-04-25T10:50:49.863Z,97226.11
2023-04-25T10:54:12.176Z,97227.05
2023-04-25T10:57:32.464Z,97227.21
2023-04-25T11:00:56.891Z,97224.45
2023-04-25T11:04:01.502Z,97227.86
2023-04-25T11:07:07.467Z,97231.38
2023-04-25T11:10:10.234Z,97224.54
2023-04-25T11:13:12.209Z,97228.85
2023-04-25T11:19:21.195Z,97229.42
2023-04-25T11:22:23.637Z,97227.31
2023-04-25T11:25:26.220Z,97227.25
2023-04-25T11:28:28.134Z,97229.65
2023-04-25T11:31:30.632Z,97227.95
2023-04-25T11:34:35.781Z,97235.33
2023-04-25T11:37:40.572Z,97237.79
2023-04-25T11:40:42.329Z,97236.34
2023-04-25T11:43:44.713Z,97242.39
2023-04-25T11:46:47.137Z,97242.16
2023-04-25T11:49:49.285Z,97240.45
2023-04-25T11:52:51.392Z,97243.09
2023-04-25T11:55:53.632Z,97242.68
2023-04-25T11:58:56.875Z,97240.16
2023-04-25T12:01:58.862Z,97243.73
2023-04-25T12:05:11.820Z,97245.27
2023-04-25T12:08:18.058Z,97237.80
2023-04-25T12:11:22.993Z,97242.73
2023-04-25T12:14:29.765Z,97236.32
2023-04-25T12:17:31.737Z,97238.19
2023-04-25T12:20:34.480Z,97241.48
2023-04-25T12:23:39.946Z,97242.23
2023-04-25T12:26:59.447Z,97241.86
2023-04-25T12:30:02.164Z,97241.21
2023-04-25T12:33:04.088Z,97245.29
2023-04-25T12:36:11.084Z,97243.02
2023-04-25T12:39:20.700Z,97240.14
2023-04-25T12:42:22.446Z,97237.83
2023-04-25T12:45:24.186Z,97237.63
2023-04-25T12:48:26.036Z,97235.89
2023-04-25T12:51:28.315Z,97232.14
2023-04-25T12:54:30.159Z,97230.41
2023-04-25T12:57:31.976Z,97231.34
2023-04-25T13:00:34.171Z,97234.70
2023-04-25T13:03:36.214Z,97233.71
2023-04-25T13:06:38.487Z,97232.91
2023-04-25T13:09:40.463Z,97230.42
2023-04-25T13:12:44.239Z,97227.43
2023-04-25T13:15:46.602Z,97229.48
2023-04-25T13:18:48.349Z,97230.19
2023-04-25T13:21:50.350Z,97231.67
2023-04-25T13:24:52.083Z,97232.19
2023-04-25T13:27:53.815Z,97231.30
2023-04-25T13:30:55.876Z,97227.48
2023-04-25T13:33:57.530Z,97223.38
2023-04-25T13:36:59.348Z,97226.91
2023-04-25T13:40:04.659Z,97227.75
2023-04-25T13:43:09.142Z,97225.82
2023-04-25T13:46:30.164Z,97228.80
2023-04-25T13:49:33.832Z,97235.73
2023-04-25T13:52:35.749Z,97233.95
2023-04-25T13:55:37.895Z,97233.99
2023-04-25T13:58:39.970Z,97232.38
2023-04-25T14:01:41.985Z,97234.30
2023-04-25T14:04:43.855Z,97236.35
2023-04-25T14:07:46.147Z,97235.02
2023-04-25T14:10:47.984Z,97234.25
2023-04-25T14:13:49.981Z,97235.73
2023-04-25T14:16:54.155Z,97236.64
2023-04-25T14:19:55.913Z,97240.49
2023-04-25T14:22:58.523Z,97243.23
2023-04-25T14:26:00.498Z,97238.44
2023-04-25T14:29:02.256Z,97242.79
2023-04-25T14:32:05.568Z,97243.06
2023-04-25T14:35:07.662Z,97245.25
2023-04-25T14:38:09.338Z,97244.63
2023-04-25T14:41:11.332Z,97245.63
2023-04-25T14:44:13.066Z,97241.67
2023-04-25T14:47:22.540Z,97241.58
2023-04-25T14:50:26.577Z,97242.36
2023-04-25T14:53:31.134Z,97243.02
2023-04-25T14:56:32.927Z,97241.17
2023-04-25T14:59:35.065Z,97246.24
2023-04-25T15:02:37.753Z,97243.52
2023-04-25T15:05:41.226Z,97239.45
2023-04-25T15:08:43.370Z,97246.73
2023-04-25T15:11:45.914Z,97247.48
2023-04-25T15:14:47.847Z,97252.77
2023-04-25T15:17:49.891Z,97252.48
2023-04-25T15:20:52.451Z,97248.67
2023-04-25T15:23:54.376Z,97242.33
2023-04-25T15:26:56.927Z,97243.66
2023-04-25T15:29:58.652Z,97244.37
2023-04-25T15:33:00.508Z,97248.91
2023-04-25T15:36:03.627Z,97248.08
2023-04-25T15:39:05.344Z,97249.46
2023-04-25T15:42:07.639Z,97249.86
2023-04-25T15:45:11.416Z,97254.71
2023-04-25T15:48:13.246Z,97255.60
2023-04-25T15:51:16.533Z,97256.02
2023-04-25T15:54:18.316Z,97252.67
2023-04-25T15:57:20.362Z,97251.62
2023-04-25T16:00:22.312Z,97246.55
2023-04-25T16:03:24.316Z,97245.46
2023-04-25T16:06:26.790Z,97251.02
2023-04-25T16:09:28.969Z,97250.64
2023-04-25T16:12:30.749Z,97256.16
2023-04-25T16:15:34.617Z,97257.61
2023-04-25T16:18:37.359Z,97258.20
2023-04-25T16:21:39.577Z,97258.02
2023-04-25T16:24:42.468Z,97260.31
2023-04-25T16:27:44.297Z,97260.13
2023-04-25T16:30:46.445Z,97257.81
2023-04-25T16:33:51.324Z,97256.92
2023-04-25T16:36:56.466Z,97272.71
2023-04-25T16:40:00.414Z,97274.76
2023-04-25T16:43:02.221Z,97274.31
2023-04-25T16:46:04.126Z,97277.04
2023-04-25T16:49:06.101Z,97279.30
2023-04-25T16:52:08.217Z,97281.86
2023-04-25T16:55:10.015Z,97284.50
2023-04-25T16:58:12.045Z,97284.20
2023-04-25T17:01:19.384Z,97281.80
2023-04-25T17:04:21.366Z,97286.22
2023-04-25T17:07:23.776Z,97282.15
2023-04-25T17:10:25.451Z,97286.08
2023-04-25T17:13:30.773Z,97289.35
2023-04-25T17:16:35.856Z,97290.05
2023-04-25T17:19:37.779Z,97296.87
2023-04-25T17:22:39.798Z,97299.18
2023-04-25T17:25:41.650Z,97304.56
2023-04-25T17:28:48.407Z,97303.20
2023-04-25T17:31:50.701Z,97303.00
2023-04-25T17:34:52.375Z,97308.54
2023-04-25T17:37:54.076Z,97310.02
2023-04-25T17:40:55.802Z,97317.42
2023-04-25T17:43:57.516Z,97322.58
2023-04-25T17:47:00.623Z,97330.20
2023-04-25T17:50:03.559Z,97336.51
2023-04-25T17:53:05.697Z,97341.73
2023-04-25T17:56:19.407Z,97349.93
2023-04-25T17:59:28.067Z,97351.52
2023-04-25T18:02:30.731Z,97350.21
2023-04-25T18:05:32.702Z,97347.94
2023-04-25T18:08:34.360Z,97359.81
2023-04-25T18:11:36.180Z,97366.39
2023-04-25T18:14:39.082Z,97371.95
2023-04-25T18:17:41.317Z,97378.21
2023-04-25T18:20:44.661Z,97377.84
2023-04-25T18:23:47.304Z,97378.03
2023-04-25T18:26:49.866Z,97379.00
2023-04-25T18:29:51.550Z,97377.30
2023-04-25T18:32:54.521Z,97385.65
2023-04-25T18:35:59.683Z,97387.83
2023-04-25T18:39:15.554Z,97387.48
2023-04-25T18:42:24.505Z,97396.25
2023-04-25T18:45:26.153Z,97400.54
2023-04-25T18:48:28.008Z,97411.79
2023-04-25T18:51:30.899Z,97417.61
2023-04-25T18:54:32.650Z,97420.41
2023-04-25T18:57:34.301Z,97425.10
2023-04-25T19:00:37.309Z,97432.04
2023-04-25T19:03:39.704Z,97437.57
2023-04-25T19:06:41.797Z,97442.25
2023-04-25T19:09:46.783Z,97440.55
2023-04-25T19:12:48.660Z,97445.38
2023-04-25T19:15:50.405Z,97445.01
2023-04-25T19:18:54.365Z,97445.72
2023-04-25T19:21:58.302Z,97451.20
2023-04-25T19:25:10.014Z,97452.23
2023-04-25T19:28:13.287Z,97459.73
2023-04-25T19:31:16.065Z,97460.72
2023-04-25T19:34:17.965Z,97461.98
2023-04-25T19:37:19.968Z,97467.10
2023-04-25T19:40:22.124Z,97467.86
2023-04-25T19:43:24.035Z,97470.03
2023-04-25T19:46:26.366Z,97474.70
2023-04-25T19:49:28.098Z,97481.27
2023-04-25T19:52:30.984Z,97481.89
2023-04-25T19:55:32.747Z,97483.88
2023-04-25T19:58:35.070Z,97487.70
2023-04-25T20:01:36.767Z,97491.83
2023-04-25T20:04:39.209Z,97495.80
2023-04-25T20:07:41.753Z,97495.84
2023-04-25T20:10:43.652Z,97489.17
2023-04-25T20:13:45.353Z,97493.30
2023-04-25T20:16:47.268Z,97497.84
2023-04-25T20:19:48.974Z,97499.34
2023-04-25T20:22:50.944Z,97504.52
2023-04-25T20:25:52.770Z,97510.01
2023-04-25T20:28:54.896Z,97511.75
2023-04-25T20:31:57.173Z,97512.25
2023-04-25T20:34:59.127Z,97512.96
2023-04-25T20:38:01.237Z,97514.52
2023-04-25T20:41:03.157Z,97517.59
2023-04-25T20:44:06.918Z,97521.00
2023-04-25T20:47:09.610Z,97522.52
2023-04-25T20:50:11.563Z,97525.85
2023-04-25T20:53:14.406Z,97527.20
2023-04-25T20:56:16.418Z,97528.73
2023-04-25T20:59:18.138Z,97531.20
2023-04-25T21:02:19.933Z,97534.84
2023-04-25T21:05:22.257Z,97537.55
2023-04-25T21:08:24.090Z,97536.40
2023-04-25T21:11:26.632Z,97540.81
2023-04-25T21:14:28.529Z,97542.33
2023-04-25T21:17:30.287Z,97542.80
2023-04-25T21:20:32.372Z,97540.98
2023-04-25T21:23:34.159Z,97548.71
2023-04-25T21:26:35.953Z,97545.35
2023-04-25T21:29:37.626Z,97549.77
2023-04-25T21:32:39.776Z,97554.42
2023-04-25T21:35:41.494Z,97553.36
2023-04-25T21:38:43.194Z,97559.27
2023-04-25T21:41:45.774Z,97565.42
2023-04-25T21:44:47.387Z,97564.61
2023-04-25T21:47:49.986Z,97562.83
2023-04-25T21:50:51.972Z,97562.60
2023-04-25T21:53:53.691Z,97560.77
2023-04-25T21:56:56.568Z,97565.51
2023-04-25T21:59:58.466Z,97566.75
2023-04-25T22:03:00.538Z,97566.90
2023-04-25T22:06:03.259Z,97571.21
2023-04-25T22:09:05.041Z,97577.50
2023-04-25T22:12:07.430Z,97577.59
2023-04-25T22:15:09.826Z,97583.26
2023-04-25T22:18:12.671Z,97586.64
2023-04-25T22:21:14.505Z,97594.96
2023-04-25T22:24:16.196Z,97594.42
2023-04-25T22:27:17.904Z,97595.29
2023-04-25T22:30:19.830Z,97599.96
2023-04-25T22:33:21.718Z,97598.81
2023-04-25T22:36:23.485Z,97602.54
2023-04-25T22:39:25.180Z,97605.64
2023-04-25T22:42:26.869Z,97613.52
2023-04-25T22:45:28.635Z,97613.67
2023-04-25T22:48:30.334Z,97616.83
2023-04-25T22:51:32.566Z,97618.01
2023-04-25T22:54:34.637Z,97617.38
2023-04-25T22:57:38.012Z,97614.47
2023-04-25T23:00:40.768Z,97612.33
2023-04-25T23:03:43.035Z,97605.42
2023-04-25T23:06:45.694Z,97607.30
2023-04-25T23:09:47.430Z,97608.42
2023-04-25T23:12:49.453Z,97615.53
2023-04-25T23:15:51.324Z,97618.77
2023-04-25T23:18:53.252Z,97615.27
2023-04-25T23:21:55.173Z,97616.63
2023-04-25T23:24:57.024Z,97624.06
2023-04-25T23:27:58.761Z,97622.53
2023-04-25T23:31:04.900Z,97622.71
2023-04-25T23:34:07.025Z,97627.77
2023-04-25T23:37:08.723Z,97632.37
2023-04-25T23:40:13.681Z,97633.15
2023-04-25T23:43:16.184Z,97633.33
2023-04-25T23:46:18.255Z,97636.02
2023-04-25T23:49:20.412Z,97636.60
2023-04-25T23:52:22.984Z,97641.02
2023-04-25T23:55:24.779Z,97644.35
2023-04-25T23:58:26.458Z,97646.64
